sensor_id;sensor_type;location;lat;lon;timestamp;pressure;altitude;pressure_sealevel;temperature;humidity
78843;BME280;70542;53.774;-0.352;2023-06-26T00:00:47;101260;;;20;44
78843;BME280;70542;53.774;-0.352;2023-06-26T00:06:27;101270;;;20;44
78843;BME280;70542;53.774;-0.352;2023-06-26T00:12:06;101270;;;20;45
78843;BME280;70542;53.774;-0.352;2023-06-26T00:17:45;101260;;;19;47
78843;BME280;70542;53.774;-0.352;2023-06-26T00:23:24;101270;;;21;43
78843;BME280;70542;53.774;-0.352;2023-06-26T00:29:07;101260;;;21;42
78843;BME280;70542;53.774;-0.352;2023-06-26T00:34:46;101260;;;19;46
78843;BME280;70542;53.774;-0.352;2023-06-26T00:40:25;101260;;;20;45
78843;BME280;70542;53.774;-0.352;2023-06-26T00:46:12;101260;;;19;47
78843;BME280;70542;53.774;-0.352;2023-06-26T00:51:56;101260;;;19;45
78843;BME280;70542;53.774;-0.352;2023-06-26T00:57:36;101270;;;17;49
78843;BME280;70542;53.774;-0.352;2023-06-26T01:03:15;101280;;;19;47
78843;BME280;70542;53.774;-0.352;2023-06-26T01:08:53;101290;;;18;49
78843;BME280;70542;53.774;-0.352;2023-06-26T01:14:34;101280;;;18;50
78843;BME280;70542;53.774;-0.352;2023-06-26T01:20:14;101290;;;17;49
78843;BME280;70542;53.774;-0.352;2023-06-26T01:26:12;101300;;;17;49
78843;BME280;70542;53.774;-0.352;2023-06-26T01:31:51;101300;;;18;50
78843;BME280;70542;53.774;-0.352;2023-06-26T01:37:30;101300;;;16;50
78843;BME280;70542;53.774;-0.352;2023-06-26T01:43:15;101310;;;17;51
78843;BME280;70542;53.774;-0.352;2023-06-26T01:49:03;101310;;;16;50
78843;BME280;70542;53.774;-0.352;2023-06-26T01:54:52;101320;;;16;48
78843;BME280;70542;53.774;-0.352;2023-06-26T02:03:10;101320;;;16;50
78843;BME280;70542;53.774;-0.352;2023-06-26T02:08:49;101320;;;15;51
78843;BME280;70542;53.774;-0.352;2023-06-26T02:14:28;101320;;;15;53
78843;BME280;70542;53.774;-0.352;2023-06-26T02:20:07;101330;;;16;51
78843;BME280;70542;53.774;-0.352;2023-06-26T02:25:46;101340;;;16;50
78843;BME280;70542;53.774;-0.352;2023-06-26T02:31:24;101350;;;15;52
78843;BME280;70542;53.774;-0.352;2023-06-26T02:37:03;101350;;;16;51
78843;BME280;70542;53.774;-0.352;2023-06-26T02:42:42;101360;;;15;53
78843;BME280;70542;53.774;-0.352;2023-06-26T02:48:21;101360;;;16;52
78843;BME280;70542;53.774;-0.352;2023-06-26T02:54:04;101370;;;16;52
78843;BME280;70542;53.774;-0.352;2023-06-26T03:02:37;101370;;;16;50
78843;BME280;70542;53.774;-0.352;2023-06-26T03:08:16;101380;;;16;49
78843;BME280;70542;53.774;-0.352;2023-06-26T03:13:56;101380;;;17;50
78843;BME280;70542;53.774;-0.352;2023-06-26T03:19:36;101380;;;16;50
78843;BME280;70542;53.774;-0.352;2023-06-26T03:25:14;101380;;;17;47
78843;BME280;70542;53.774;-0.352;2023-06-26T03:30:58;101380;;;15;52
78843;BME280;70542;53.774;-0.352;2023-06-26T03:36:37;101390;;;17;48
78843;BME280;70542;53.774;-0.352;2023-06-26T03:42:15;101400;;;17;48
78843;BME280;70542;53.774;-0.352;2023-06-26T03:47:54;101400;;;16;48
78843;BME280;70542;53.774;-0.352;2023-06-26T03:53:38;101400;;;16;49
78843;BME280;70542;53.774;-0.352;2023-06-26T03:59:27;101400;;;17;47
78843;BME280;70542;53.774;-0.352;2023-06-26T04:05:06;101420;;;16;49
78843;BME280;70542;53.774;-0.352;2023-06-26T04:10:50;101420;;;17;48
78843;BME280;70542;53.774;-0.352;2023-06-26T04:16:41;101430;;;17;49
78843;BME280;70542;53.774;-0.352;2023-06-26T04:22:44;101430;;;16;49
78843;BME280;70542;53.774;-0.352;2023-06-26T04:28:29;101430;;;16;50
78843;BME280;70542;53.774;-0.352;2023-06-26T04:34:14;101450;;;16;50
78843;BME280;70542;53.774;-0.352;2023-06-26T04:39:59;101450;;;17;48
78843;BME280;70542;53.774;-0.352;2023-06-26T04:45:43;101450;;;18;45
78843;BME280;70542;53.774;-0.352;2023-06-26T04:51:22;101460;;;17;46
78843;BME280;70542;53.774;-0.352;2023-06-26T04:57:00;101460;;;17;47
78843;BME280;70542;53.774;-0.352;2023-06-26T05:02:40;101460;;;16;51
78843;BME280;70542;53.774;-0.352;2023-06-26T05:08:22;101470;;;16;50
78843;BME280;70542;53.774;-0.352;2023-06-26T05:14:02;101480;;;17;50
78843;BME280;70542;53.774;-0.352;2023-06-26T05:19:41;101490;;;16;51
78843;BME280;70542;53.774;-0.352;2023-06-26T05:25:22;101500;;;15;53
78843;BME280;70542;53.774;-0.352;2023-06-26T05:31:04;101510;;;14;57
78843;BME280;70542;53.774;-0.352;2023-06-26T05:36:51;101500;;;15;55
78843;BME280;70542;53.774;-0.352;2023-06-26T05:42:35;101510;;;15;54
78843;BME280;70542;53.774;-0.352;2023-06-26T05:48:15;101520;;;15;53
78843;BME280;70542;53.774;-0.352;2023-06-26T05:53:54;101530;;;16;51
78843;BME280;70542;53.774;-0.352;2023-06-26T05:59:40;101530;;;17;49
78843;BME280;70542;53.774;-0.352;2023-06-26T06:05:21;101530;;;16;51
78843;BME280;70542;53.774;-0.352;2023-06-26T06:11:05;101540;;;15;53
78843;BME280;70542;53.774;-0.352;2023-06-26T06:16:45;101540;;;15;54
78843;BME280;70542;53.774;-0.352;2023-06-26T06:22:29;101550;;;14;56
78843;BME280;70542;53.774;-0.352;2023-06-26T06:28:08;101540;;;15;56
78843;BME280;70542;53.774;-0.352;2023-06-26T06:33:57;101550;;;16;51
78843;BME280;70542;53.774;-0.352;2023-06-26T06:39:36;101560;;;15;54
78843;BME280;70542;53.774;-0.352;2023-06-26T06:45:15;101560;;;16;52
78843;BME280;70542;53.774;-0.352;2023-06-26T06:51:10;101570;;;16;50
78843;BME280;70542;53.774;-0.352;2023-06-26T06:57:04;101570;;;16;50
78843;BME280;70542;53.774;-0.352;2023-06-26T07:02:46;101570;;;16;51
78843;BME280;70542;53.774;-0.352;2023-06-26T07:08:58;101580;;;16;49
78843;BME280;70542;53.774;-0.352;2023-06-26T07:15:01;101580;;;16;49
78843;BME280;70542;53.774;-0.352;2023-06-26T07:21:06;101600;;;17;48
78843;BME280;70542;53.774;-0.352;2023-06-26T07:27:16;101600;;;16;49
78843;BME280;70542;53.774;-0.352;2023-06-26T07:33:20;101610;;;17;46
78843;BME280;70542;53.774;-0.352;2023-06-26T07:39:05;101610;;;15;52
78843;BME280;70542;53.774;-0.352;2023-06-26T07:45:10;101610;;;16;49
78843;BME280;70542;53.774;-0.352;2023-06-26T07:51:06;101610;;;17;48
78843;BME280;70542;53.774;-0.352;2023-06-26T07:56:53;101620;;;17;47
78843;BME280;70542;53.774;-0.352;2023-06-26T08:02:42;101620;;;16;48
78843;BME280;70542;53.774;-0.352;2023-06-26T08:08:21;101620;;;17;45
78843;BME280;70542;53.774;-0.352;2023-06-26T08:14:00;101630;;;17;45
78843;BME280;70542;53.774;-0.352;2023-06-26T08:19:44;101630;;;17;45
78843;BME280;70542;53.774;-0.352;2023-06-26T08:25:24;101630;;;17;44
78843;BME280;70542;53.774;-0.352;2023-06-26T08:31:09;101640;;;17;44
78843;BME280;70542;53.774;-0.352;2023-06-26T08:36:47;101640;;;18;43
78843;BME280;70542;53.774;-0.352;2023-06-26T08:42:26;101640;;;19;41
78843;BME280;70542;53.774;-0.352;2023-06-26T08:48:12;101640;;;19;39
78843;BME280;70542;53.774;-0.352;2023-06-26T08:53:57;101650;;;18;42
78843;BME280;70542;53.774;-0.352;2023-06-26T08:59:37;101650;;;17;42
78843;BME280;70542;53.774;-0.352;2023-06-26T09:05:17;101650;;;17;43
78843;BME280;70542;53.774;-0.352;2023-06-26T09:10:58;101650;;;17;42
78843;BME280;70542;53.774;-0.352;2023-06-26T09:16:40;101640;;;18;41
78843;BME280;70542;53.774;-0.352;2023-06-26T09:22:19;101660;;;18;41
78843;BME280;70542;53.774;-0.352;2023-06-26T09:27:58;101660;;;18;41
78843;BME280;70542;53.774;-0.352;2023-06-26T09:33:38;101660;;;18;40
78843;BME280;70542;53.774;-0.352;2023-06-26T09:39:23;101680;;;17;44
78843;BME280;70542;53.774;-0.352;2023-06-26T09:51:01;101680;;;18;47
78843;BME280;70542;53.774;-0.352;2023-06-26T09:56:39;101680;;;18;45
78843;BME280;70542;53.774;-0.352;2023-06-26T10:02:19;101680;;;18;41
78843;BME280;70542;53.774;-0.352;2023-06-26T10:07:59;101690;;;17;40
78843;BME280;70542;53.774;-0.352;2023-06-26T10:13:43;101700;;;17;42
78843;BME280;70542;53.774;-0.352;2023-06-26T10:19:25;101700;;;18;39
78843;BME280;70542;53.774;-0.352;2023-06-26T10:25:07;101720;;;17;40
78843;BME280;70542;53.774;-0.352;2023-06-26T10:30:53;101710;;;18;41
78843;BME280;70542;53.774;-0.352;2023-06-26T10:36:38;101700;;;18;39
78843;BME280;70542;53.774;-0.352;2023-06-26T10:42:36;101710;;;19;36
78843;BME280;70542;53.774;-0.352;2023-06-26T10:48:16;101720;;;18;39
78843;BME280;70542;53.774;-0.352;2023-06-26T10:53:55;101720;;;19;38
78843;BME280;70542;53.774;-0.352;2023-06-26T10:59:39;101720;;;20;35
78843;BME280;70542;53.774;-0.352;2023-06-26T11:05:24;101720;;;19;36
78843;BME280;70542;53.774;-0.352;2023-06-26T11:11:04;101740;;;20;34
78843;BME280;70542;53.774;-0.352;2023-06-26T11:16:44;101740;;;19;37
78843;BME280;70542;53.774;-0.352;2023-06-26T11:22:25;101740;;;18;37
78843;BME280;70542;53.774;-0.352;2023-06-26T11:28:09;101750;;;19;36
78843;BME280;70542;53.774;-0.352;2023-06-26T11:33:48;101770;;;18;43
78843;BME280;70542;53.774;-0.352;2023-06-26T11:39:27;101780;;;17;50
78843;BME280;70542;53.774;-0.352;2023-06-26T11:45:08;101770;;;17;48
78843;BME280;70542;53.774;-0.352;2023-06-26T11:50:50;101770;;;17;47
78843;BME280;70542;53.774;-0.352;2023-06-26T11:56:30;101770;;;17;46
78843;BME280;70542;53.774;-0.352;2023-06-26T12:02:10;101770;;;17;45
78843;BME280;70542;53.774;-0.352;2023-06-26T12:07:54;101770;;;18;41
78843;BME280;70542;53.774;-0.352;2023-06-26T12:13:35;101780;;;16;47
78843;BME280;70542;53.774;-0.352;2023-06-26T12:19:14;101780;;;17;43
78843;BME280;70542;53.774;-0.352;2023-06-26T12:25:01;101780;;;18;42
78843;BME280;70542;53.774;-0.352;2023-06-26T12:30:40;101770;;;19;39
78843;BME280;70542;53.774;-0.352;2023-06-26T12:36:19;101780;;;19;41
78843;BME280;70542;53.774;-0.352;2023-06-26T12:42:01;101780;;;18;41
78843;BME280;70542;53.774;-0.352;2023-06-26T12:47:45;101780;;;17;40
78843;BME280;70542;53.774;-0.352;2023-06-26T12:53:23;101780;;;17;40
78843;BME280;70542;53.774;-0.352;2023-06-26T12:59:02;101770;;;18;37
78843;BME280;70542;53.774;-0.352;2023-06-26T13:04:48;101780;;;18;34
78843;BME280;70542;53.774;-0.352;2023-06-26T13:10:29;101770;;;18;34
78843;BME280;70542;53.774;-0.352;2023-06-26T13:16:07;101780;;;19;33
78843;BME280;70542;53.774;-0.352;2023-06-26T13:21:46;101790;;;19;32
78843;BME280;70542;53.774;-0.352;2023-06-26T13:27:24;101780;;;18;36
78843;BME280;70542;53.774;-0.352;2023-06-26T13:33:03;101780;;;19;33
78843;BME280;70542;53.774;-0.352;2023-06-26T13:38:48;101800;;;19;33
78843;BME280;70542;53.774;-0.352;2023-06-26T13:44:27;101800;;;19;32
78843;BME280;70542;53.774;-0.352;2023-06-26T13:50:10;101790;;;19;34
78843;BME280;70542;53.774;-0.352;2023-06-26T13:55:49;101790;;;20;31
78843;BME280;70542;53.774;-0.352;2023-06-26T14:01:27;101780;;;19;32
78843;BME280;70542;53.774;-0.352;2023-06-26T14:07:06;101790;;;20;32
78843;BME280;70542;53.774;-0.352;2023-06-26T14:12:51;101800;;;20;32
78843;BME280;70542;53.774;-0.352;2023-06-26T14:18:30;101790;;;19;32
78843;BME280;70542;53.774;-0.352;2023-06-26T14:24:14;101800;;;20;32
78843;BME280;70542;53.774;-0.352;2023-06-26T14:29:58;101800;;;19;31
78843;BME280;70542;53.774;-0.352;2023-06-26T14:35:36;101790;;;19;31
78843;BME280;70542;53.774;-0.352;2023-06-26T14:41:15;101800;;;19;31
78843;BME280;70542;53.774;-0.352;2023-06-26T14:46:54;101800;;;20;30
78843;BME280;70542;53.774;-0.352;2023-06-26T14:52:32;101790;;;20;31
78843;BME280;70542;53.774;-0.352;2023-06-26T14:58:15;101790;;;20;30
78843;BME280;70542;53.774;-0.352;2023-06-26T15:03:58;101790;;;19;31
78843;BME280;70542;53.774;-0.352;2023-06-26T15:09:37;101800;;;18;33
78843;BME280;70542;53.774;-0.352;2023-06-26T15:15:16;101800;;;20;30
78843;BME280;70542;53.774;-0.352;2023-06-26T15:20:54;101800;;;19;30
78843;BME280;70542;53.774;-0.352;2023-06-26T15:26:34;101800;;;21;29
78843;BME280;70542;53.774;-0.352;2023-06-26T15:32:12;101800;;;21;27
78843;BME280;70542;53.774;-0.352;2023-06-26T15:37:51;101810;;;21;28
78843;BME280;70542;53.774;-0.352;2023-06-26T15:43:32;101800;;;21;28
78843;BME280;70542;53.774;-0.352;2023-06-26T15:49:11;101810;;;20;30
78843;BME280;70542;53.774;-0.352;2023-06-26T15:54:50;101820;;;19;31
78843;BME280;70542;53.774;-0.352;2023-06-26T16:00:29;101810;;;20;31
78843;BME280;70542;53.774;-0.352;2023-06-26T16:06:09;101800;;;19;31
78843;BME280;70542;53.774;-0.352;2023-06-26T16:11:48;101800;;;19;30
78843;BME280;70542;53.774;-0.352;2023-06-26T16:17:26;101800;;;19;31
78843;BME280;70542;53.774;-0.352;2023-06-26T16:23:05;101810;;;19;32
78843;BME280;70542;53.774;-0.352;2023-06-26T16:28:43;101810;;;19;31
78843;BME280;70542;53.774;-0.352;2023-06-26T16:34:22;101820;;;19;31
78843;BME280;70542;53.774;-0.352;2023-06-26T16:40:12;101820;;;19;31
78843;BME280;70542;53.774;-0.352;2023-06-26T16:45:51;101810;;;20;29
78843;BME280;70542;53.774;-0.352;2023-06-26T16:51:35;101820;;;20;30
78843;BME280;70542;53.774;-0.352;2023-06-26T16:57:24;101820;;;20;30
78843;BME280;70542;53.774;-0.352;2023-06-26T17:03:06;101820;;;20;31
78843;BME280;70542;53.774;-0.352;2023-06-26T17:08:50;101820;;;20;31
78843;BME280;70542;53.774;-0.352;2023-06-26T17:14:38;101820;;;20;30
78843;BME280;70542;53.774;-0.352;2023-06-26T17:20:23;101820;;;19;31
78843;BME280;70542;53.774;-0.352;2023-06-26T17:26:02;101830;;;20;29
78843;BME280;70542;53.774;-0.352;2023-06-26T17:31:41;101840;;;20;29
78843;BME280;70542;53.774;-0.352;2023-06-26T17:37:21;101820;;;20;28
78843;BME280;70542;53.774;-0.352;2023-06-26T17:42:59;101840;;;20;28
78843;BME280;70542;53.774;-0.352;2023-06-26T17:48:38;101850;;;20;28
78843;BME280;70542;53.774;-0.352;2023-06-26T17:54:29;101850;;;22;27
78843;BME280;70542;53.774;-0.352;2023-06-26T18:00:16;101860;;;21;26
78843;BME280;70542;53.774;-0.352;2023-06-26T18:06:32;101870;;;21;28
78843;BME280;70542;53.774;-0.352;2023-06-26T18:13:10;101860;;;21;28
78843;BME280;70542;53.774;-0.352;2023-06-26T18:19:00;101870;;;21;28
78843;BME280;70542;53.774;-0.352;2023-06-26T18:24:44;101880;;;21;28
78843;BME280;70542;53.774;-0.352;2023-06-26T18:30:37;101890;;;19;31
78843;BME280;70542;53.774;-0.352;2023-06-26T18:36:22;101890;;;21;28
78843;BME280;70542;53.774;-0.352;2023-06-26T18:42:03;101890;;;19;30
78843;BME280;70542;53.774;-0.352;2023-06-26T18:47:46;101900;;;20;30
78843;BME280;70542;53.774;-0.352;2023-06-26T18:54:47;101900;;;19;31
78843;BME280;70542;53.774;-0.352;2023-06-26T19:00:56;101910;;;19;32
78843;BME280;70542;53.774;-0.352;2023-06-26T19:06:46;101910;;;19;31
78843;BME280;70542;53.774;-0.352;2023-06-26T19:12:50;101920;;;20;32
78843;BME280;70542;53.774;-0.352;2023-06-26T19:18:45;101930;;;19;33
78843;BME280;70542;53.774;-0.352;2023-06-26T19:24:24;101930;;;19;33
78843;BME280;70542;53.774;-0.352;2023-06-26T19:30:04;101930;;;19;33
78843;BME280;70542;53.774;-0.352;2023-06-26T19:35:48;101940;;;18;34
78843;BME280;70542;53.774;-0.352;2023-06-26T19:41:27;101940;;;19;33
78843;BME280;70542;53.774;-0.352;2023-06-26T19:47:06;101930;;;19;34
78843;BME280;70542;53.774;-0.352;2023-06-26T19:52:46;101940;;;18;35
78843;BME280;70542;53.774;-0.352;2023-06-26T19:58:25;101940;;;18;35
78843;BME280;70542;53.774;-0.352;2023-06-26T20:04:09;101960;;;19;34
78843;BME280;70542;53.774;-0.352;2023-06-26T20:09:48;101960;;;20;32
78843;BME280;70542;53.774;-0.352;2023-06-26T20:15:28;101960;;;18;35
78843;BME280;70542;53.774;-0.352;2023-06-26T20:21:14;101970;;;20;33
78843;BME280;70542;53.774;-0.352;2023-06-26T20:26:59;101980;;;19;34
78843;BME280;70542;53.774;-0.352;2023-06-26T20:32:38;101980;;;18;37
78843;BME280;70542;53.774;-0.352;2023-06-26T20:38:18;101980;;;18;37
78843;BME280;70542;53.774;-0.352;2023-06-26T20:43:57;101980;;;18;38
78843;BME280;70542;53.774;-0.352;2023-06-26T20:49:38;101990;;;18;39
78843;BME280;70542;53.774;-0.352;2023-06-26T20:55:33;101990;;;18;37
78843;BME280;70542;53.774;-0.352;2023-06-26T21:01:22;101990;;;18;39
78843;BME280;70542;53.774;-0.352;2023-06-26T21:07:07;102000;;;19;36
78843;BME280;70542;53.774;-0.352;2023-06-26T21:12:51;102000;;;19;37
78843;BME280;70542;53.774;-0.352;2023-06-26T21:18:31;102000;;;18;38
78843;BME280;70542;53.774;-0.352;2023-06-26T21:24:15;102000;;;20;35
78843;BME280;70542;53.774;-0.352;2023-06-26T21:29:57;102000;;;18;37
78843;BME280;70542;53.774;-0.352;2023-06-26T21:35:47;102000;;;18;38
78843;BME280;70542;53.774;-0.352;2023-06-26T21:41:41;101990;;;18;38
78843;BME280;70542;53.774;-0.352;2023-06-26T21:47:25;101990;;;18;39
78843;BME280;70542;53.774;-0.352;2023-06-26T21:53:04;102000;;;18;39
78843;BME280;70542;53.774;-0.352;2023-06-26T21:58:53;102010;;;19;36
78843;BME280;70542;53.774;-0.352;2023-06-26T22:04:42;102010;;;20;34
78843;BME280;70542;53.774;-0.352;2023-06-26T22:10:37;102020;;;20;34
78843;BME280;70542;53.774;-0.352;2023-06-26T22:17:21;102020;;;17;40
78843;BME280;70542;53.774;-0.352;2023-06-26T22:23:23;102030;;;19;35
78843;BME280;70542;53.774;-0.352;2023-06-26T22:29:09;102030;;;20;35
78843;BME280;70542;53.774;-0.352;2023-06-26T22:34:48;102020;;;18;37
78843;BME280;70542;53.774;-0.352;2023-06-26T22:40:27;102020;;;19;35
78843;BME280;70542;53.774;-0.352;2023-06-26T22:46:06;102030;;;19;37
78843;BME280;70542;53.774;-0.352;2023-06-26T22:51:44;102030;;;19;38
78843;BME280;70542;53.774;-0.352;2023-06-26T22:57:23;102030;;;18;37
78843;BME280;70542;53.774;-0.352;2023-06-26T23:03:03;102030;;;18;39
78843;BME280;70542;53.774;-0.352;2023-06-26T23:08:47;102030;;;17;40
78843;BME280;70542;53.774;-0.352;2023-06-26T23:14:26;102030;;;18;40
78843;BME280;70542;53.774;-0.352;2023-06-26T23:20:06;102030;;;18;38
78843;BME280;70542;53.774;-0.352;2023-06-26T23:25:44;102040;;;19;36
78843;BME280;70542;53.774;-0.352;2023-06-26T23:31:28;102030;;;18;39
78843;BME280;70542;53.774;-0.352;2023-06-26T23:37:09;102030;;;21;32
78843;BME280;70542;53.774;-0.352;2023-06-26T23:42:53;102030;;;20;36
78843;BME280;70542;53.774;-0.352;2023-06-26T23:54:51;102030;;;19;36
